• Join FlightAware (Why Join?)
  • Login
  • US Flag 
05:23AM EST


 

Airport Tracker/Info


-or-


 

Live Flight TrackerFlight Track Log ✈ TMC875 ✈ 28-Apr-2013 ✈ KSUA - KHPN

Flight Track Log - Related Links

Times and Time Zones

All times are in EDT time to prevent confusion due to time zone crossing. See the TMC875 flight status page for this flight to view local times or setup timezone preferences in your user account.

Time Position Orientation Groundspeed Altitude Reporting Facility
EDT Latitude Longitude Course Direction KTS MPH feet Rate Location/Type
11:22AM 27.1378 -80.1431 13° North 204 235 4,100  Level Miami Center
11:23AM 27.0931 -80.1861 221° Southwest 176 203 5,000 1,380 Climbing Miami Center
11:24AM 27.1308 -80.2642 299° West 183 211 6,900 2,040 Climbing Miami Center
11:25AM 27.1989 -80.2967 337° Northwest 205 236 9,100 1,020 Climbing Miami Center
11:26AM 27.2714 -80.3292 338° Northwest 245 282 9,000 1,260 Descending Miami Center
11:27AM 27.3397 -80.3522 343° North 279 321 11,700 2,640 Climbing Miami Center
11:28AM 27.4146 -80.5547 13° North  Level FlightAware Approximate
11:28AM 27.4161 -80.3825 341° North 285 328 14,300  Level Miami Center
11:29AM 27.5053 -80.4064 347° North 290 334 17,300 2,520 Climbing Miami Center
11:30AM 27.5811 -80.3853 14° North 296 341 19,400 2,400 Climbing Miami Center
11:31AM 27.6672 -80.3575 16° North 301 346 22,200 2,400 Climbing Miami Center
11:32AM 27.7578 -80.3250 18° North 318 366 24,300 2,160 Climbing Miami Center
11:33AM 27.8653 -80.2908 16° North 346 398 26,600 1,920 Climbing Miami Center
11:34AM 27.9622 -80.2514 20° North 361 415 28,200 1,380 Climbing Miami Center
11:35AM 28.0650 -80.2286 11° North 372 428 29,400 1,440 Climbing Miami Center
11:36AM 28.1628 -80.2386 355° North 378 435 31,100 1,860 Climbing Miami Center
11:37AM 28.2817 -80.2444 358° North 384 442 33,200 1,860 Climbing Miami Center
11:38AM 28.3836 -80.2547 355° North 379 436 34,900 900 Climbing Miami Center
11:39AM 28.4903 -80.2461 North 374 430 35,000 240 Climbing Miami Center
11:40AM 28.5833 -80.1967 25° Northeast 387 445 35,400 660 Climbing Miami Center
11:41AM 28.6956 -80.1269 29° Northeast 408 470 36,400 960 Climbing Miami Center
11:42AM 28.7969 -80.0611 30° Northeast 408 470 37,400 960 Climbing Miami Center
11:43AM 28.8944 -80.0000 29° Northeast 408 470 38,400 780 Climbing Miami Center
11:44AM 28.9917 -79.9364 30° Northeast 402 463 39,000 300 Climbing Miami Center
11:45AM 29.0931 -79.8775 27° Northeast 402 463 39,000  Level Miami Center
11:46AM 29.1928 -79.8064 32° Northeast 408 470 39,000  Level Miami Center
11:47AM 29.2919 -79.7400 30° Northeast 413 475 39,000  Level Miami Center
11:48AM 29.3975 -79.6808 26° Northeast 413 475 39,000 120 Level Miami Center
11:49AM 29.4969 -79.6119 31° Northeast 413 475 39,300 480 Climbing Miami Center
11:51AM 29.6947 -79.4761 31° Northeast 406 467 40,600 540 Climbing Jacksonville Center
11:52AM 29.7886 -79.4011 35° Northeast 407 468 41,000 180 Climbing Jacksonville Center
11:53AM 29.9000 -79.3492 22° Northeast 414 476 41,000  Level Jacksonville Center
11:54AM 29.9981 -79.2761 33° Northeast 416 479 41,000  Level Jacksonville Center
11:55AM 30.0983 -79.2050 32° Northeast 421 484 41,000  Level Jacksonville Center
11:56AM 30.2031 -79.1411 28° Northeast 413 475 41,000  Level Jacksonville Center
11:57AM 30.2911 -79.0822 30° Northeast 408 470 41,000  Level Jacksonville Center
11:58AM 30.3958 -79.0250 25° Northeast 413 475 41,000  Level Jacksonville Center
11:59AM 30.5092 -78.9772 20° North 418 481 41,000  Level Jacksonville Center
12:00PM 30.6183 -78.9317 20° North 411 473 41,000  Level Jacksonville Center
12:01PM 30.7275 -78.8836 21° North 405 466 41,000  Level Jacksonville Center
12:02PM 30.8389 -78.8403 18° North 411 473 41,000 -60 Level Jacksonville Center
12:03PM 30.9436 -78.7919 22° Northeast 404 465 40,900  Descending Jacksonville Center
12:04PM 31.0528 -78.7461 20° North 404 465 41,000  Climbing Jacksonville Center
12:05PM 31.1558 -78.7075 18° North 404 465 41,000  Level Jacksonville Center
12:06PM 31.2650 -78.6564 22° Northeast 404 465 41,000  Level Jacksonville Center
12:07PM 31.3739 -78.6078 21° North 404 465 41,000  Level Jacksonville Center
12:08PM 31.4808 -78.5614 20° North 404 465 41,000  Level Jacksonville Center
12:09PM 31.5858 -78.5153 21° North 404 465 41,000  Level Jacksonville Center
12:10PM 31.6947 -78.4708 19° North 404 465 41,000  Level Jacksonville Center
12:11PM 31.7994 -78.4219 22° Northeast 404 465 41,000  Level Jacksonville Center
12:12PM 31.9064 -78.3753 20° North 404 465 41,000  Level Jacksonville Center
12:13PM 32.0092 -78.3308 20° North 398 458 41,000  Level Jacksonville Center
12:14PM 32.1139 -78.2839 21° North 398 458 41,000  Level Jacksonville Center
12:15PM 32.2167 -78.2397 20° North 393 452 41,000  Level Jacksonville Center
12:16PM 32.3211 -78.1850 24° Northeast 398 458 41,000  Level Jacksonville Center
12:17PM 32.4258 -78.1403 20° North 398 458 41,000  Level Jacksonville Center
12:18PM 32.5286 -78.0981 19° North 398 458 41,000  Level Jacksonville Center
12:19PM 32.6311 -78.0506 21° North 398 458 41,000  Level Jacksonville Center
12:20PM 32.7358 -78.0056 20° North 398 458 41,000 -60 Level Jacksonville Center
12:22PM 32.9289 -77.9217 20° North 408 470 40,900  Descending Washington Center
12:23PM 33.0319 -77.8725 22° Northeast 403 464 41,000  Climbing Washington Center
12:24PM 33.1350 -77.8283 20° North 397 457 41,000  Level Washington Center
12:25PM 33.2403 -77.7814 20° North 397 457 41,000  Level Washington Center
12:26PM 33.3433 -77.7367 20° North 392 451 41,000  Level Washington Center
12:27PM 33.4525 -77.6850 22° Northeast 397 457 41,000  Level Washington Center
12:28PM 33.5556 -77.6375 21° North 397 457 41,000  Level Washington Center
12:29PM 33.6628 -77.5878 21° North 397 457 41,000  Level Washington Center
12:30PM 33.7700 -77.5381 21° North 402 463 41,000  Level Washington Center
12:31PM 33.8772 -77.4903 20° North 407 468 41,000  Level Washington Center
12:32PM 33.9761 -77.4450 21° North 413 475 41,000  Level Washington Center
12:33PM 34.0831 -77.3972 20° North 413 475 41,000  Level Washington Center
12:34PM 34.1922 -77.3469 21° North 413 475 41,000  Level Washington Center
12:35PM 34.3017 -77.2967 21° North 413 475 41,000  Level Washington Center
12:36PM 34.4086 -77.2508 19° North 413 475 41,000  Level Washington Center
12:37PM 34.5178 -77.1978 22° Northeast 413 475 41,000  Level Washington Center
12:38PM 34.6269 -77.1494 20° North 413 475 41,000  Level Washington Center
12:39PM 34.7319 -77.1008 21° North 413 475 41,000  Level Washington Center
12:40PM 34.8369 -77.0497 22° Northeast 413 475 41,000  Level Washington Center
12:41PM 34.9417 -77.0008 21° North 408 470 41,000  Level Washington Center
12:42PM 35.0447 -76.9494 22° Northeast 408 470 41,000  Level Washington Center
12:43PM 35.1517 -76.8978 22° Northeast 408 470 41,000  Level Washington Center
12:44PM 35.2564 -76.8511 20° North 402 463 41,000  Level Washington Center
12:45PM 35.3614 -76.7992 22° Northeast 397 457 41,000  Level Washington Center
12:46PM 35.4619 -76.7497 22° Northeast 397 457 41,000  Level Washington Center
12:47PM 35.5667 -76.6978 22° Northeast 397 457 41,000  Level Washington Center
12:48PM 35.6714 -76.6506 20° North 397 457 41,000  Level Washington Center
12:49PM 35.7761 -76.6008 21° North 397 457 41,000 -180 Level Washington Center
12:50PM 35.8831 -76.5483 22° Northeast 397 457 40,700 -840 Descending Washington Center
12:51PM 35.9878 -76.4956 22° Northeast 397 457 39,400 -1,440 Descending Washington Center
12:52PM 36.0944 -76.4453 21° North 397 457 37,900 -1,500 Descending Washington Center
12:53PM 36.1972 -76.3975 21° North 397 457 36,400 -1,440 Descending Washington Center
12:54PM 36.3058 -76.3444 21° North 397 457 35,000 -720 Descending Washington Center
12:55PM 36.4211 -76.2889 21° North 415 478 35,000  Level Washington Center
12:56PM 36.5319 -76.2331 22° Northeast 427 491 35,000  Level Washington Center
12:57PM 36.6428 -76.1794 21° North 427 491 35,000  Level Washington Center
12:58PM 36.7558 -76.1208 23° Northeast 433 498 35,000  Level Washington Center
12:59PM 36.8664 -76.0644 22° Northeast 433 498 35,000  Level Washington Center
01:00PM 36.9961 -76.0081 19° North 441 507 35,000  Level Washington Center
01:01PM 37.1025 -75.9514 23° Northeast 441 507 35,000  Level Washington Center
01:02PM 37.2156 -75.8944 22° Northeast 431 496 35,000  Level Washington Center
01:03PM 37.3281 -75.8400 21° North 431 496 35,000  Level Washington Center
01:04PM 37.4389 -75.7828 22° Northeast 431 496 35,000  Level Washington Center
01:05PM 37.5517 -75.7281 21° North 431 496 35,000  Level Washington Center
01:06PM 37.6622 -75.6706 22° Northeast 431 496 35,000  Level Washington Center
01:07PM 37.7728 -75.6181 21° North 431 496 35,000  Level Washington Center
01:08PM 37.8853 -75.5575 23° Northeast 431 496 35,000  Level Washington Center
01:09PM 37.9958 -75.5022 22° Northeast 431 496 35,000  Level Washington Center
01:10PM 38.1064 -75.4361 25° Northeast 431 496 35,000  Level Washington Center
01:11PM 38.2147 -75.3697 26° Northeast 431 496 35,000  Level Washington Center
01:12PM 38.3103 -75.3033 29° Northeast 431 496 35,000  Level Washington Center
01:13PM 38.4186 -75.2367 26° Northeast 431 496 35,000  Level Washington Center
01:14PM 38.5269 -75.1669 27° Northeast 426 490 35,000  Level Washington Center
01:15PM 38.6350 -75.0972 27° Northeast 426 490 35,000  Level Washington Center
01:16PM 38.7450 -75.0275 26° Northeast 426 490 35,000 -60 Level Washington Center
01:17PM 38.8531 -74.9600 26° Northeast 426 490 34,900  Descending Washington Center
01:18PM 38.9592 -74.8950 25° Northeast 426 490 35,000 -540 Climbing Washington Center
01:19PM 39.0631 -74.8244 28° Northeast 426 490 33,900 -1,560 Descending Washington Center
01:21PM 39.2469 -74.6528 36° Northeast 431 496 30,700 -1,860 Descending New York Center
01:22PM 39.3531 -74.5378 40° Northeast 436 502 28,700 -2,040 Descending New York Center
01:23PM 39.4500 -74.4381 38° Northeast 441 507 26,600 -2,100 Descending New York Center
01:24PM 39.5428 -74.3350 41° Northeast 436 502 24,600 -1,440 Descending New York Center
01:25PM 39.6397 -74.2350 38° Northeast 436 502 23,700 -840 Descending New York Center
01:26PM 39.7256 -74.1419 40° Northeast 426 490 23,000 -360 Descending New York Center
01:27PM 39.8181 -74.0464 38° Northeast 421 484 23,000  Level New York Center
01:28PM 39.9081 -73.9533 38° Northeast 415 478 23,000  Level New York Center
01:29PM 39.9964 -73.8544 41° Northeast 415 478 23,000 -180 Level New York Center
01:30PM 40.0861 -73.7633 38° Northeast 409 471 22,700 -1,200 Descending New York Center
01:32PM 40.2186 -73.6142 41° Northeast 382 440 19,800 -1,800 Descending Boston Center
01:33PM 40.3114 -73.5231 37° Northeast 377 434 18,000 -1,440 Descending Boston Center
01:34PM 40.4036 -73.4511 31° Northeast 372 428 17,000 -540 Descending Boston Center
01:35PM 40.4997 -73.4144 16° North 358 412 17,000 -420 Level Boston Center
01:36PM 40.6147 -73.3722 16° North 358 412 16,000 -840 Descending Boston Center
01:37PM 40.7089 -73.3381 15° North 352 405 15,000 -600 Descending Boston Center
01:38PM 40.8000 -73.2667 31° Northeast 303 349 14,800 -960 Descending New York TRACON
01:39PM 40.8500 -73.1667 57° Northeast 319 367 13,000 -1,740 Descending New York TRACON
01:40PM 40.9000 -73.0833 52° Northeast 306 352 11,200 -2,820 Descending New York TRACON
01:41PM 40.9333 -73.0000 62° Northeast 276 318 7,400 -1,500 Descending New York TRACON
01:42PM 40.9833 -72.9167 52° Northeast 264 304 8,200 -300 Climbing New York TRACON
01:43PM 41.0500 -72.9167 360° North 273 314 6,900 -1,440 Descending New York TRACON
01:44PM 41.1000 -73.0000 309° West 261 300 5,200 -1,020 Descending New York TRACON
01:45PM 41.1333 -73.0667 304° West 254 292 4,900 -120 Descending New York TRACON
01:46PM 41.1667 -73.1667 294° West 253 291 5,000 -300 Climbing New York TRACON
01:47PM 41.1667 -73.2500 270° West 241 277 4,400 -540 Descending New York TRACON
01:48PM 41.1833 -73.3333 285° West 243 280 4,000 -240 Descending New York TRACON
01:49PM 41.1833 -73.4333 270° West 248 285 4,000 -300 Level New York TRACON
01:50PM 41.2000 -73.5167 285° West 243 280 3,500 -540 Descending New York TRACON
01:51PM 41.2167 -73.6000 285° West 225 259 3,000 -300 Descending New York TRACON
01:52PM 41.2500 -73.6667 304° West 234 269 3,000 -300 Level New York TRACON
01:53PM 41.2333 -73.7500 255° West 234 269 2,500 -540 Descending New York TRACON
01:54PM 41.2167 -73.8167 252° West 200 230 2,000 -300 Descending New York TRACON
01:55PM 41.1667 -73.7833 153° Southeast 173 199 2,000 -120 Level New York TRACON
01:56PM 41.1333 -73.7500 143° Southeast 163 188 1,800 -540 Descending New York TRACON
01:57PM 41.1000 -73.7333 159° South 129 148 1,000 -840 Descending New York TRACON
01:59PM 41.0667 -73.7000 148° Southeast  Level FlightAware Approximate
02:06PM 41.0669 -73.7076 148° Southeast  Level Estimated
02:07PM 41.0667 -73.7000 148° Southeast  Level FlightAware Approximate